Portada
METAR-TAF:

METAR-TAF

Aeropuertos :

Aeropuerto de Pisa

Pisa, Italia

latitud: 43-41N, longitud: 010-23E, altitud: 2 m

Observación

El informe se hizo hace 39 minutos, a las 10:45 UTC
Viento 6 kt del este
Temperatura 19°C
Humedad 26%
Presión 1020 hPa
Visibilidad 10 km o más
sin nubes por debajo de 1500 m y sin presencia de cumulonimbus.

METAR: LIRP 041045Z 09006KT CAVOK 19/M01 Q1020 NOSIG

Hora: 13:24 (11:24 UTC)

Pronóstico

El informe se hizo hace 12 horas y 24 minutos, a las 23:00 UTC
Pronóstico válido del 04 a las 00 UTC al 04 a las 24 UTC
Viento 6 kt del este-noreste
Visibilidad 10 km o más
sin nubes por debajo de 1500 m y sin presencia de cumulonimbus.
Temporalmente
del 04 a las 09 UTC al 04 a las 16 UTC
Viento 16 kt del este-noreste

TAF: LIRP 032300Z 0400/0424 07006KT CAVOK TEMPO 0409/0416 07016KT

Observaciones y pronósticos meteorológicos de más de 4000 aeropuertos (mensajes METAR y TAF).

Los puntos amarillos y rojos representan las estaciones disponibles.

Ponga el ratón en el punto deseado para ver el nombre de la estación.

Haga clic para ver las observaciones y los pronósticos meteorológicos.

Para cambiar el mapa : haga clic en los botones verdes con una cruz de color negro para hacer un zoom, en el botón verde con un guión para alejar o en las flechas verdes para mapas adyacentes.


METAR-TAF: